Time;durP1;ratioP1;P1;durP2;ratioP2;P2;SDS_P1;SDS_P2;PMS_P1;PMS_P2;Temp;Humidity;BMP_temperature;BMP_pressure;BME280_temperature;BME280_humidity;BME280_pressure;Samples;Min_cycle;Max_cycle;Signal;HPM_P1;HPM_P2
2022/01/28 00:00:32;;;;;;;17.77;2.20;;;5.40;99.90;;;;;;5013979;28;20117;-80
2022/01/28 00:03:09;;;;;;;17.47;1.83;;;5.40;99.90;;;;;;4994638;28;20030;-81
2022/01/28 00:05:36;;;;;;;12.27;2.33;;;5.60;99.90;;;;;;4993812;28;20767;-81
2022/01/28 00:08:04;;;;;;;19.52;3.17;;;5.40;99.90;;;;;;4994425;28;20112;-81
2022/01/28 00:10:31;;;;;;;15.15;2.47;;;5.30;99.90;;;;;;5001531;28;20017;-81
2022/01/28 00:13:05;;;;;;;15.90;2.97;;;5.20;99.90;;;;;;5013710;28;20050;-81
2022/01/28 00:15:40;;;;;;;7.40;1.90;;;5.10;99.90;;;;;;5013627;28;20041;-81
2022/01/28 00:37:23;;;;;;;12.50;1.88;;;5.20;99.90;;;;;;5014825;28;20492;-81
2022/01/28 00:39:50;;;;;;;8.15;2.15;;;5.10;99.90;;;;;;5013384;28;20417;-80
2022/01/28 00:42:16;;;;;;;12.25;2.63;;;5.10;1.00;;;;;;5013217;28;20052;-81
2022/01/28 00:44:42;;;;;;;20.90;3.05;;;5.30;99.90;;;;;;5013516;28;20047;-81
2022/01/28 00:47:08;;;;;;;16.13;3.35;;;5.40;99.90;;;;;;5013215;28;20362;-81
2022/01/28 00:49:34;;;;;;;17.58;3.15;;;5.30;99.90;;;;;;5013301;28;20021;-81
2022/01/28 00:51:59;;;;;;;14.32;2.70;;;5.10;99.90;;;;;;5013309;28;20053;-80
2022/01/28 00:54:25;;;;;;;10.95;1.42;;;5.00;99.90;;;;;;5013256;28;20022;-81
2022/01/28 00:56:51;;;;;;;10.93;2.28;;;5.00;99.90;;;;;;5013219;28;20470;-81
2022/01/28 00:59:17;;;;;;;17.13;2.28;;;4.90;99.90;;;;;;5012842;28;20025;-81
2022/01/28 01:01:43;;;;;;;16.13;1.98;;;4.70;99.90;;;;;;5013009;28;20488;-81
2022/01/28 01:04:08;;;;;;;12.73;1.50;;;4.60;99.90;;;;;;5012944;28;20022;-80
2022/01/28 01:06:34;;;;;;;18.92;2.85;;;4.60;99.90;;;;;;5013178;28;20029;-80
2022/01/28 01:09:01;;;;;;;20.50;2.13;;;4.40;99.90;;;;;;5013173;28;20018;-81
2022/01/28 01:11:27;;;;;;;10.10;1.45;;;4.30;99.90;;;;;;5013135;28;20022;-81
2022/01/28 01:13:54;;;;;;;14.15;1.83;;;4.40;99.90;;;;;;5014156;28;20053;-81
2022/01/28 01:16:30;;;;;;;10.50;1.60;;;4.40;99.90;;;;;;5012809;28;20026;-81
2022/01/28 01:21:40;;;;;;;13.32;1.98;;;4.50;99.90;;;;;;5014218;28;20026;-81
2022/01/28 01:24:09;;;;;;;9.90;1.35;;;4.70;99.90;;;;;;5012721;28;20022;-81
2022/01/28 01:26:38;;;;;;;16.35;2.08;;;4.70;99.90;;;;;;5012476;28;20041;-80
2022/01/28 01:29:08;;;;;;;7.38;1.80;;;4.60;99.90;;;;;;5013233;28;20026;-80
2022/01/28 01:31:35;;;;;;;12.63;2.47;;;4.70;99.90;;;;;;5012876;28;20057;-81
2022/01/28 01:34:11;;;;;;;13.43;1.60;;;4.70;99.90;;;;;;5013237;28;20018;-80
2022/01/28 01:36:37;;;;;;;5.88;0.63;;;4.70;99.90;;;;;;5012935;28;20026;-81
2022/01/28 01:39:03;;;;;;;14.07;1.92;;;4.70;99.90;;;;;;5012726;28;20425;-80
2022/01/28 01:41:36;;;;;;;12.00;1.13;;;4.60;99.90;;;;;;5012534;28;20022;-80
2022/01/28 01:44:25;;;;;;;11.85;2.40;;;4.60;99.90;;;;;;5012839;28;20026;-80
2022/01/28 01:52:44;;;;;;;10.05;1.65;;;4.80;99.90;;;;;;5013651;28;20081;-80
2022/01/28 01:55:10;;;;;;;15.02;2.25;;;4.90;99.90;;;;;;5012432;28;20426;-80
2022/01/28 01:57:37;;;;;;;12.02;2.22;;;5.00;99.90;;;;;;5012147;28;20049;-81
2022/01/28 02:00:05;;;;;;;22.48;1.88;;;5.20;99.90;;;;;;5013757;28;20044;-80
2022/01/28 02:02:31;;;;;;;31.17;4.00;;;5.30;99.90;;;;;;5011975;28;20041;-81
2022/01/28 02:04:56;;;;;;;10.10;1.42;;;5.30;99.90;;;;;;5012515;28;20053;-80
2022/01/28 02:07:23;;;;;;;4.53;0.90;;;5.20;99.90;;;;;;5013448;28;20466;-80
2022/01/28 02:09:48;;;;;;;13.05;1.40;;;5.10;99.90;;;;;;5012694;28;20032;-80
2022/01/28 02:12:14;;;;;;;8.95;0.77;;;4.90;99.90;;;;;;5012348;28;20120;-81
2022/01/28 02:14:40;;;;;;;13.00;1.80;;;4.70;99.90;;;;;;5012330;28;20026;-80
2022/01/28 02:17:06;;;;;;;4.93;1.10;;;4.70;99.90;;;;;;5015585;28;20029;-81
2022/01/28 02:19:32;;;;;;;6.07;0.93;;;4.70;99.90;;;;;;5015716;28;20030;-81
2022/01/28 02:21:58;;;;;;;13.10;1.27;;;4.70;32.50;;;;;;5016300;28;20393;-80
2022/01/28 02:24:35;;;;;;;9.82;0.95;;;4.60;26.20;;;;;;5015531;28;20524;-80
2022/01/28 02:27:01;;;;;;;16.25;1.48;;;4.50;31.40;;;;;;5016070;28;20026;-81
2022/01/28 02:29:30;;;;;;;10.90;1.33;;;4.50;36.90;;;;;;5016802;28;20076;-80
2022/01/28 02:31:58;;;;;;;6.88;1.40;;;4.40;59.70;;;;;;5015459;28;20021;-81
2022/01/28 02:34:24;;;;;;;17.73;1.85;;;4.30;97.00;;;;;;5017014;28;20108;-80
2022/01/28 02:36:49;;;;;;;9.13;1.63;;;4.30;99.90;;;;;;5017022;28;20481;-80
2022/01/28 02:39:15;;;;;;;13.02;1.52;;;4.40;99.90;;;;;;5015932;28;20099;-80
2022/01/28 02:41:45;;;;;;;15.02;1.70;;;4.30;99.90;;;;;;5015630;28;20119;-80
2022/01/28 02:44:22;;;;;;;12.52;1.85;;;4.40;99.90;;;;;;5015697;28;20045;-81
2022/01/28 02:47:01;;;;;;;18.10;2.50;;;4.30;99.90;;;;;;5016808;28;20417;-80
2022/01/28 02:49:33;;;;;;;12.95;2.25;;;4.30;99.90;;;;;;5015303;28;20474;-80
2022/01/28 02:51:59;;;;;;;12.30;1.45;;;4.40;99.90;;;;;;5016364;28;20030;-80
2022/01/28 02:54:25;;;;;;;11.00;1.58;;;4.40;99.90;;;;;;5016646;28;20029;-80
2022/01/28 02:56:58;;;;;;;9.63;1.08;;;4.40;99.90;;;;;;5014974;28;20028;-80
2022/01/28 02:59:23;;;;;;;10.30;1.50;;;4.60;99.90;;;;;;5015529;28;20042;-80
2022/01/28 03:01:49;;;;;;;15.50;1.77;;;4.80;99.90;;;;;;5015375;28;20022;-80
2022/01/28 03:04:43;;;;;;;6.65;1.63;;;4.90;99.90;;;;;;5015172;28;20469;-81
2022/01/28 03:07:00;;;;;;;27.25;3.03;;;4.90;99.90;;;;;;5016522;28;20080;-80
2022/01/28 03:09:35;;;;;;;15.00;1.40;;;5.10;99.90;;;;;;5015887;28;20025;-80
2022/01/28 03:12:14;;;;;;;9.07;1.45;;;5.10;99.90;;;;;;5014553;28;20108;-81
2022/01/28 03:17:38;;;;;;;4.82;1.50;;;5.30;99.90;;;;;;5015865;28;20026;-81
2022/01/28 03:22:45;;;;;;;15.40;2.67;;;5.20;99.90;;;;;;5016022;28;20128;-81
2022/01/28 03:25:12;;;;;;;8.65;1.73;;;5.20;99.90;;;;;;5015924;28;20417;-81
2022/01/28 03:27:51;;;;;;;8.57;1.92;;;5.40;99.90;;;;;;5014624;28;20030;-80
2022/01/28 03:30:35;;;;;;;10.70;2.03;;;5.40;60.90;;;;;;5014689;28;20026;-80
2022/01/28 03:33:01;;;;;;;12.32;2.20;;;5.50;13.60;;;;;;4995217;28;20023;-81
2022/01/28 03:38:55;;;;;;;8.57;1.80;;;5.70;1.00;;;;;;4995782;28;20033;-80
2022/01/28 03:41:23;;;;;;;8.55;1.50;;;5.40;1.00;;;;;;5011490;28;20031;-81
2022/01/28 03:43:49;;;;;;;8.52;1.60;;;5.20;1.00;;;;;;4995597;28;20037;-80
2022/01/28 03:46:15;;;;;;;9.88;1.33;;;5.00;1.00;;;;;;4994807;28;20053;-80
2022/01/28 03:48:41;;;;;;;5.88;1.17;;;4.90;1.00;;;;;;4994732;28;20026;-81
2022/01/28 03:51:07;;;;;;;12.98;1.95;;;4.90;1.00;;;;;;4994705;28;20036;-80
2022/01/28 03:53:33;;;;;;;10.27;1.90;;;4.80;1.00;;;;;;5011190;28;20109;-80
2022/01/28 03:55:59;;;;;;;9.30;1.83;;;4.90;1.00;;;;;;4994646;28;20477;-81
2022/01/28 03:59:05;;;;;;;10.55;1.83;;;4.60;1.00;;;;;;5002104;28;20041;-80
2022/01/28 04:01:35;;;;;;;9.23;1.20;;;4.70;1.00;;;;;;4994391;28;20034;-81
2022/01/28 04:13:21;;;;;;;15.40;2.13;;;5.00;1.00;;;;;;5015152;28;20133;-81
2022/01/28 04:16:05;;;;;;;11.77;1.63;;;4.80;1.00;;;;;;5014154;28;20053;-81
2022/01/28 04:18:30;;;;;;;8.93;1.10;;;4.80;1.00;;;;;;5009130;28;20141;-81
2022/01/28 04:20:56;;;;;;;20.90;1.85;;;4.70;1.00;;;;;;5014804;28;20508;-81
2022/01/28 04:23:23;;;;;;;11.13;1.38;;;4.80;1.00;;;;;;5015011;28;20073;-81
2022/01/28 04:25:48;;;;;;;8.30;2.20;;;4.80;1.00;;;;;;5013776;28;20140;-80
2022/01/28 04:28:14;;;;;;;16.48;1.70;;;4.60;1.00;;;;;;5013637;28;20033;-80
2022/01/28 04:30:40;;;;;;;12.48;1.70;;;4.60;1.00;;;;;;5013236;28;20116;-81
2022/01/28 04:33:05;;;;;;;10.30;2.05;;;4.60;1.00;;;;;;5013480;28;20030;-81
2022/01/28 04:35:31;;;;;;;9.45;1.48;;;4.60;1.00;;;;;;5013356;28;20117;-81
2022/01/28 04:40:29;;;;;;;9.95;1.23;;;4.70;1.00;;;;;;5014664;28;20602;-80
2022/01/28 04:43:23;;;;;;;4.60;1.00;;;4.60;1.00;;;;;;5014425;28;20037;-81
2022/01/28 04:45:58;;;;;;;12.98;1.45;;;4.60;1.00;;;;;;5014829;28;20056;-81
2022/01/28 04:51:14;;;;;;;11.25;1.80;;;4.60;1.00;;;;;;5014443;28;20040;-81
2022/01/28 04:56:32;;;;;;;12.27;0.95;;;4.50;1.00;;;;;;5014567;28;19963;-81
2022/01/28 04:59:23;;;;;;;10.30;2.45;;;4.50;1.00;;;;;;5014578;28;20033;-80
2022/01/28 05:04:45;;;;;;;13.70;2.25;;;4.60;1.00;;;;;;5014425;28;20134;-81
2022/01/28 05:24:07;;;;;;;13.20;1.63;;;4.40;1.00;;;;;;5013795;28;20084;-80
2022/01/28 05:26:23;;;;;;;4.78;1.20;;;4.40;1.00;;;;;;5013483;28;20033;-80
2022/01/28 05:28:48;;;;;;;10.13;1.77;;;4.30;1.00;;;;;;4994340;28;20035;-80
2022/01/28 05:31:18;;;;;;;10.98;2.30;;;4.40;1.00;;;;;;4994566;28;20057;-80
2022/01/28 05:33:44;;;;;;;11.25;2.65;;;4.40;21.30;;;;;;5009323;28;20143;-80
2022/01/28 05:36:10;;;;;;;19.95;3.70;;;4.50;23.00;;;;;;4992840;28;20466;-80
2022/01/28 05:38:36;;;;;;;8.77;2.08;;;4.50;8.50;;;;;;5012427;28;20508;-80
2022/01/28 05:41:01;;;;;;;9.43;1.27;;;4.50;1.00;;;;;;5012534;28;20105;-80
2022/01/28 05:43:27;;;;;;;10.68;1.88;;;4.40;5.80;;;;;;5012610;28;20037;-81
2022/01/28 05:45:53;;;;;;;8.63;1.52;;;4.30;8.40;;;;;;5012846;28;20167;-81
2022/01/28 05:48:21;;;;;;;13.90;2.63;;;4.30;7.10;;;;;;5012907;28;20026;-81
2022/01/28 05:50:46;;;;;;;7.50;1.02;;;4.10;19.90;;;;;;5015188;28;20018;-80
2022/01/28 05:53:12;;;;;;;12.13;2.38;;;4.00;44.80;;;;;;5016460;28;20120;-80
2022/01/28 05:55:38;;;;;;;12.15;2.00;;;3.90;49.60;;;;;;5016553;28;20103;-81
2022/01/28 05:58:04;;;;;;;18.50;2.45;;;3.80;50.10;;;;;;5017414;28;20041;-80
2022/01/28 06:00:29;;;;;;;13.35;2.53;;;3.60;78.30;;;;;;5017444;28;20025;-80
2022/01/28 06:02:55;;;;;;;5.18;1.27;;;3.70;90.00;;;;;;5015846;28;20037;-81
2022/01/28 06:05:20;;;;;;;10.02;2.05;;;3.60;91.50;;;;;;5017070;28;20022;-81
2022/01/28 06:07:46;;;;;;;16.10;1.98;;;3.70;92.90;;;;;;5016712;28;20028;-80
2022/01/28 06:10:14;;;;;;;19.65;3.10;;;3.50;96.80;;;;;;5016294;28;20029;-80
2022/01/28 06:12:50;;;;;;;4.45;1.05;;;3.50;93.80;;;;;;5017347;28;20026;-81
2022/01/28 06:15:16;;;;;;;6.90;1.75;;;3.40;99.90;;;;;;5017384;28;20110;-81
2022/01/28 06:17:41;;;;;;;20.98;2.90;;;3.30;99.90;;;;;;5015827;28;20112;-80
2022/01/28 06:20:09;;;;;;;22.42;2.33;;;3.30;99.90;;;;;;5017241;28;20037;-81
2022/01/28 06:22:39;;;;;;;6.68;1.33;;;3.30;89.80;;;;;;5015481;28;20069;-81
2022/01/28 06:25:06;;;;;;;14.75;2.33;;;3.30;84.10;;;;;;5016160;28;20113;-80
2022/01/28 06:27:31;;;;;;;11.35;1.50;;;3.20;90.80;;;;;;5015498;28;20033;-80
2022/01/28 06:29:57;;;;;;;12.20;1.55;;;3.30;57.30;;;;;;5015659;28;20377;-80
2022/01/28 06:32:22;;;;;;;11.93;2.90;;;3.20;62.10;;;;;;5016024;28;20160;-80
2022/01/28 06:34:48;;;;;;;15.43;1.42;;;3.20;46.70;;;;;;5016959;28;20030;-81
2022/01/28 06:37:13;;;;;;;9.07;1.92;;;3.30;23.70;;;;;;5016101;28;20022;-80
2022/01/28 06:39:39;;;;;;;9.07;1.42;;;3.20;21.30;;;;;;5016445;28;20501;-80
2022/01/28 06:42:05;;;;;;;11.35;2.45;;;3.20;16.70;;;;;;5015625;28;20029;-80
2022/01/28 06:44:31;;;;;;;17.92;2.10;;;3.10;33.30;;;;;;5016900;28;20021;-80
2022/01/28 06:46:57;;;;;;;12.85;1.75;;;3.00;54.60;;;;;;5016366;28;20544;-80
2022/01/28 06:49:22;;;;;;;14.50;1.45;;;3.00;51.20;;;;;;5015168;28;20109;-80
2022/01/28 06:51:48;;;;;;;12.52;1.38;;;2.90;76.90;;;;;;5015126;28;20057;-80
2022/01/28 06:54:14;;;;;;;15.38;1.80;;;2.80;95.40;;;;;;5015535;28;20065;-80
2022/01/28 06:56:39;;;;;;;9.75;1.88;;;2.70;99.90;;;;;;5015307;28;20022;-80
2022/01/28 06:59:05;;;;;;;15.18;2.10;;;2.60;99.90;;;;;;5015402;28;20022;-81
2022/01/28 07:01:30;;;;;;;10.27;2.00;;;2.70;99.90;;;;;;5015807;28;20022;-81
2022/01/28 07:03:56;;;;;;;11.15;2.00;;;2.70;99.90;;;;;;5016045;28;20054;-82
2022/01/28 07:06:23;;;;;;;15.27;1.85;;;2.60;99.90;;;;;;5007719;28;20041;-82
2022/01/28 07:08:49;;;;;;;16.25;2.65;;;2.50;99.90;;;;;;5014647;28;20556;-82
2022/01/28 07:11:14;;;;;;;12.50;1.88;;;2.50;99.90;;;;;;5016379;28;20043;-82
2022/01/28 07:13:40;;;;;;;18.77;1.90;;;2.60;99.90;;;;;;5015577;28;20068;-82
2022/01/28 07:16:06;;;;;;;19.75;2.28;;;2.80;99.90;;;;;;4998002;28;20390;-82
2022/01/28 07:18:31;;;;;;;14.75;2.50;;;2.60;99.90;;;;;;5001233;28;20037;-82
2022/01/28 07:20:57;;;;;;;12.23;1.83;;;2.60;99.90;;;;;;4994355;28;20137;-82
2022/01/28 07:23:24;;;;;;;20.92;2.38;;;2.50;99.90;;;;;;4997555;28;20038;-82
2022/01/28 07:25:50;;;;;;;10.48;2.53;;;2.50;99.90;;;;;;5001299;28;20033;-82
2022/01/28 07:28:15;;;;;;;17.20;3.28;;;2.60;99.90;;;;;;4995257;28;20559;-83
2022/01/28 07:30:41;;;;;;;15.45;3.05;;;2.50;99.90;;;;;;5002501;28;20018;-82
2022/01/28 07:33:08;;;;;;;21.70;3.35;;;2.40;99.90;;;;;;4996329;28;20475;-82
2022/01/28 07:35:34;;;;;;;17.95;3.03;;;2.40;99.90;;;;;;5006824;28;20027;-82
2022/01/28 07:38:00;;;;;;;14.45;2.05;;;2.50;99.90;;;;;;4999844;28;20026;-82
2022/01/28 07:40:25;;;;;;;17.15;2.72;;;2.60;99.90;;;;;;4995463;28;20033;-82
2022/01/28 07:42:51;;;;;;;15.82;2.38;;;2.70;99.90;;;;;;4998850;28;20080;-82
2022/01/28 07:45:16;;;;;;;11.07;1.80;;;2.70;99.90;;;;;;5012546;28;20117;-82
2022/01/28 07:47:45;;;;;;;14.43;1.98;;;2.90;99.90;;;;;;5012215;28;20054;-82
2022/01/28 07:50:12;;;;;;;19.42;2.50;;;2.80;99.90;;;;;;5012559;28;20463;-82
2022/01/28 07:52:38;;;;;;;21.02;2.78;;;2.90;99.90;;;;;;5012231;28;20346;-81
2022/01/28 07:55:06;;;;;;;17.45;2.15;;;3.10;99.90;;;;;;5012696;28;20026;-82
2022/01/28 07:57:32;;;;;;;14.95;2.00;;;2.90;99.90;;;;;;5010996;28;20026;-81
2022/01/28 07:59:58;;;;;;;12.70;2.28;;;3.10;99.90;;;;;;5011244;28;20033;-81
2022/01/28 08:02:24;;;;;;;19.20;2.35;;;3.30;99.90;;;;;;5015502;28;20027;-84
2022/01/28 08:04:49;;;;;;;19.20;2.63;;;3.40;99.90;;;;;;5024618;28;20037;-83
2022/01/28 08:07:15;;;;;;;10.27;2.15;;;3.30;99.90;;;;;;5015793;28;20080;-84
2022/01/28 08:09:41;;;;;;;8.40;1.90;;;3.50;99.90;;;;;;5022710;28;20030;-83
2022/01/28 08:12:07;;;;;;;12.65;1.85;;;3.60;82.30;;;;;;5026256;28;20034;-83
2022/01/28 08:14:33;;;;;;;13.82;2.00;;;3.70;54.90;;;;;;5027283;28;20037;-83
2022/01/28 08:16:59;;;;;;;15.20;2.80;;;3.70;33.20;;;;;;5020493;28;20097;-83
2022/01/28 08:19:25;;;;;;;22.08;3.05;;;3.80;15.70;;;;;;5027654;28;20057;-88
2022/01/28 08:21:51;;;;;;;10.30;2.40;;;3.90;8.70;;;;;;5028538;28;20093;-87
2022/01/28 08:24:26;;;;;;;19.95;2.13;;;3.80;15.70;;;;;;5034681;28;20014;-88
2022/01/28 08:26:51;;;;;;;11.50;2.00;;;3.80;18.00;;;;;;5019953;28;20056;-86
2022/01/28 08:32:40;;;;;;;12.95;1.88;;;5.40;1.00;;;;;;5001518;28;20028;-83
2022/01/28 08:35:07;;;;;;;9.70;1.50;;;6.90;1.00;;;;;;4993851;28;20120;-81
2022/01/28 08:37:32;;;;;;;18.55;2.25;;;6.80;1.00;;;;;;5010535;28;20505;-81
2022/01/28 08:39:59;;;;;;;14.98;1.80;;;7.40;99.90;;;;;;5008882;28;20105;-82
2022/01/28 08:42:26;;;;;;;13.70;2.50;;;8.30;99.90;;;;;;5002736;28;20030;-82
2022/01/28 08:44:51;;;;;;;10.38;2.60;;;9.10;99.90;;;;;;5011770;28;20128;-82
2022/01/28 08:47:17;;;;;;;15.10;2.95;;;10.50;99.90;;;;;;5013851;28;20452;-82
2022/01/28 08:49:42;;;;;;;15.63;2.65;;;11.30;99.90;;;;;;5015312;28;20033;-81
2022/01/28 08:52:08;;;;;;;18.30;3.63;;;11.90;99.90;;;;;;5008172;28;20029;-81
2022/01/28 08:54:34;;;;;;;19.52;2.72;;;11.90;99.90;;;;;;5007614;28;20113;-82
2022/01/28 08:56:59;;;;;;;12.05;2.88;;;12.00;99.90;;;;;;5013985;28;20022;-81
2022/01/28 08:59:25;;;;;;;14.85;2.40;;;12.30;99.90;;;;;;5012723;28;20113;-82
2022/01/28 09:01:50;;;;;;;9.93;2.00;;;13.20;99.90;;;;;;5012714;28;20057;-80
2022/01/28 09:04:16;;;;;;;11.73;1.83;;;14.30;99.90;;;;;;5012241;28;20064;-81
2022/01/28 09:06:41;;;;;;;11.85;2.08;;;12.70;99.90;;;;;;5006436;28;20101;-82
2022/01/28 09:09:07;;;;;;;11.50;1.65;;;10.80;99.90;;;;;;5002916;28;20029;-82
2022/01/28 09:12:04;;;;;;;19.40;2.38;;;9.80;99.90;;;;;;5011007;28;20651;-82
2022/01/28 09:14:30;;;;;;;15.23;2.47;;;8.80;99.90;;;;;;5009598;28;20053;-81
2022/01/28 09:16:56;;;;;;;15.65;2.20;;;8.30;99.90;;;;;;5001370;28;20715;-82
2022/01/28 09:19:22;;;;;;;11.10;2.17;;;8.10;99.90;;;;;;5001187;28;20053;-81
2022/01/28 09:21:48;;;;;;;12.82;1.77;;;8.00;99.90;;;;;;5013923;28;20022;-82
2022/01/28 09:24:13;;;;;;;15.00;3.05;;;7.90;99.90;;;;;;5015212;28;20033;-81
2022/01/28 09:26:39;;;;;;;12.52;1.90;;;7.80;99.90;;;;;;5020894;28;20500;-82
2022/01/28 09:29:05;;;;;;;13.77;2.47;;;7.40;99.90;;;;;;5029051;28;20390;-82
2022/01/28 09:31:30;;;;;;;14.00;2.63;;;7.20;99.90;;;;;;5028781;28;20681;-81
2022/01/28 09:33:56;;;;;;;21.35;2.50;;;7.00;99.90;;;;;;5020411;28;20398;-81
2022/01/28 09:36:22;;;;;;;11.35;2.00;;;7.40;1.00;;;;;;5004347;28;20029;-81
2022/01/28 09:38:48;;;;;;;12.32;1.73;;;7.60;1.00;;;;;;5000483;28;20023;-81
2022/01/28 09:41:14;;;;;;;15.90;2.33;;;7.80;1.00;;;;;;5000384;28;20100;-81
2022/01/28 09:43:43;;;;;;;21.83;2.85;;;7.90;1.00;;;;;;5001167;28;20125;-81
2022/01/28 09:46:09;;;;;;;16.20;3.28;;;8.10;99.90;;;;;;5016529;28;20022;-81
2022/01/28 09:48:34;;;;;;;13.63;1.65;;;8.20;99.90;;;;;;5016339;28;20398;-80
2022/01/28 09:51:02;;;;;;;14.10;1.52;;;8.60;99.90;;;;;;5011789;28;20026;-80
2022/01/28 09:53:28;;;;;;;19.05;2.38;;;8.70;99.90;;;;;;5009009;28;20029;-80
2022/01/28 09:55:54;;;;;;;9.25;1.75;;;8.60;99.90;;;;;;5012877;28;20758;-81
2022/01/28 09:58:20;;;;;;;11.00;1.88;;;8.80;99.90;;;;;;5018677;28;20478;-80
2022/01/28 10:00:46;;;;;;;11.77;2.25;;;8.80;99.90;;;;;;5020253;28;20026;-80
2022/01/28 10:03:13;;;;;;;13.38;2.30;;;8.70;99.90;;;;;;5019909;28;20041;-80
2022/01/28 10:05:41;;;;;;;13.95;2.42;;;8.70;99.90;;;;;;5017955;28;20029;-80
2022/01/28 10:08:24;;;;;;;17.75;2.63;;;8.90;99.90;;;;;;5018184;28;20022;-81
2022/01/28 10:11:16;;;;;;;18.38;2.20;;;8.80;99.90;;;;;;5015901;28;20032;-81
2022/01/28 10:13:50;;;;;;;16.15;2.90;;;9.00;99.90;;;;;;5017427;28;20105;-81
2022/01/28 10:16:19;;;;;;;10.45;1.92;;;8.90;99.90;;;;;;5017435;28;20041;-81
2022/01/28 10:18:48;;;;;;;11.00;2.17;;;9.00;99.90;;;;;;5017030;28;20052;-81
2022/01/28 10:21:18;;;;;;;11.80;1.95;;;9.10;99.90;;;;;;5016123;28;20022;-81
2022/01/28 10:23:54;;;;;;;8.88;1.42;;;9.10;99.90;;;;;;5015731;28;20030;-81
2022/01/28 10:26:30;;;;;;;19.55;2.92;;;9.20;99.90;;;;;;5017157;28;20062;-81
2022/01/28 10:28:56;;;;;;;19.27;2.30;;;9.30;99.90;;;;;;5017287;28;20092;-81
2022/01/28 10:31:22;;;;;;;14.65;2.42;;;9.40;99.90;;;;;;5016197;28;20464;-81
2022/01/28 10:33:47;;;;;;;14.15;2.15;;;9.50;99.90;;;;;;5017230;28;20057;-81
2022/01/28 10:36:24;;;;;;;11.75;1.90;;;9.50;99.90;;;;;;5015581;28;20029;-81
2022/01/28 10:38:56;;;;;;;13.48;2.55;;;9.60;99.90;;;;;;5014549;28;20024;-81
2022/01/28 10:41:25;;;;;;;12.82;2.00;;;9.60;99.90;;;;;;5013123;28;20087;-81
2022/01/28 10:43:55;;;;;;;18.10;3.00;;;9.50;99.90;;;;;;5012956;28;20026;-81
2022/01/28 10:46:22;;;;;;;17.15;2.22;;;9.70;99.90;;;;;;5014276;28;20026;-81
2022/01/28 10:48:57;;;;;;;15.65;1.65;;;9.90;99.90;;;;;;5012594;28;20346;-81
2022/01/28 10:51:42;;;;;;;14.00;2.35;;;9.70;99.90;;;;;;5014220;28;20095;-81
2022/01/28 10:54:10;;;;;;;10.98;2.08;;;9.50;99.90;;;;;;5014185;28;20065;-81
2022/01/28 10:56:55;;;;;;;16.48;2.38;;;9.70;99.90;;;;;;5013354;28;20026;-80
2022/01/28 10:59:26;;;;;;;13.23;2.22;;;9.90;99.90;;;;;;5014184;28;20026;-81
2022/01/28 11:01:52;;;;;;;13.20;2.83;;;10.30;99.90;;;;;;5013434;28;20034;-84
2022/01/28 11:04:19;;;;;;;11.82;1.83;;;10.50;99.90;;;;;;5013335;28;20026;-83
2022/01/28 11:06:46;;;;;;;15.68;1.85;;;10.50;99.90;;;;;;5003223;28;20582;-84
2022/01/28 11:09:14;;;;;;;16.13;2.80;;;10.60;99.90;;;;;;5007717;28;20073;-84
2022/01/28 11:11:40;;;;;;;13.77;1.90;;;10.60;99.90;;;;;;5004281;28;20033;-84
2022/01/28 11:14:07;;;;;;;10.57;1.95;;;10.70;99.90;;;;;;5011552;28;20026;-84
2022/01/28 11:16:33;;;;;;;10.60;2.13;;;10.50;99.90;;;;;;5005801;28;20033;-84
2022/01/28 11:19:00;;;;;;;19.25;2.85;;;10.10;99.90;;;;;;5004765;28;20049;-84
2022/01/28 11:21:54;;;;;;;13.35;2.30;;;10.20;99.90;;;;;;5005484;28;20022;-84
2022/01/28 11:24:58;;;;;;;12.68;2.55;;;10.10;99.90;;;;;;5013147;28;20494;-84
2022/01/28 11:27:31;;;;;;;8.77;2.28;;;10.20;99.90;;;;;;5011679;28;20403;-84
2022/01/28 11:30:18;;;;;;;19.77;1.88;;;9.90;99.90;;;;;;4995026;28;20050;-84
2022/01/28 11:32:53;;;;;;;19.20;2.30;;;9.60;99.90;;;;;;4996726;28;20026;-84
2022/01/28 11:35:21;;;;;;;14.75;2.75;;;9.50;99.90;;;;;;5013140;28;20046;-85
2022/01/28 11:37:46;;;;;;;14.88;2.75;;;9.40;99.90;;;;;;5011559;28;20041;-86
2022/01/28 11:40:14;;;;;;;10.63;1.45;;;9.20;99.90;;;;;;5013696;28;20378;-86
2022/01/28 11:42:41;;;;;;;11.25;1.73;;;9.00;99.90;;;;;;5012879;28;20053;-86
2022/01/28 11:45:09;;;;;;;12.75;2.20;;;9.10;99.90;;;;;;5011944;28;20165;-86
2022/01/28 11:47:59;;;;;;;21.52;2.58;;;9.00;99.90;;;;;;5010816;28;20490;-87
2022/01/28 11:50:25;;;;;;;;;;;8.80;99.90;;;;;;4998934;28;20026;-85
2022/01/28 11:52:56;;;;;;;15.13;2.10;;;8.80;99.90;;;;;;4998052;28;20376;-86
2022/01/28 11:55:23;;;;;;;8.10;1.90;;;8.90;99.90;;;;;;5017364;28;20046;-86
2022/01/28 11:58:05;;;;;;;12.02;1.92;;;8.70;1.00;;;;;;4999803;28;20026;-86
2022/01/28 12:00:38;;;;;;;12.55;1.80;;;8.80;1.00;;;;;;5013503;28;20075;-86
2022/01/28 12:03:21;;;;;;;13.02;1.85;;;8.70;1.00;;;;;;5001595;28;20022;-86
2022/01/28 12:05:46;;;;;;;15.45;2.20;;;8.60;1.00;;;;;;5001638;28;20723;-86
2022/01/28 12:08:13;;;;;;;16.70;2.47;;;8.70;1.00;;;;;;5009019;28;20037;-87
2022/01/28 12:10:43;;;;;;;10.80;1.85;;;8.80;1.00;;;;;;5007966;28;20125;-86
2022/01/28 12:13:16;;;;;;;18.63;2.58;;;8.80;1.00;;;;;;5021698;28;20026;-83
2022/01/28 12:18:54;;;;;;;13.98;1.70;;;8.70;99.90;;;;;;5006406;28;20050;-83
2022/01/28 12:21:26;;;;;;;11.98;1.77;;;8.60;99.90;;;;;;5008912;28;20060;-83
2022/01/28 12:23:55;;;;;;;7.82;1.30;;;8.60;99.90;;;;;;5001524;28;20057;-84
2022/01/28 12:26:21;;;;;;;9.82;1.33;;;8.80;99.90;;;;;;5009272;28;20080;-83
2022/01/28 12:28:49;;;;;;;12.20;1.30;;;8.90;99.90;;;;;;5012740;28;20400;-84
2022/01/28 12:31:30;;;;;;;8.77;1.15;;;8.90;99.90;;;;;;5007984;28;20033;-83
2022/01/28 12:33:59;;;;;;;9.18;1.15;;;8.90;99.90;;;;;;5010728;28;20113;-83
2022/01/28 12:36:34;;;;;;;6.15;1.33;;;8.80;99.90;;;;;;5009355;28;20566;-84
2022/01/28 12:39:11;;;;;;;13.52;1.27;;;8.90;99.90;;;;;;5020690;28;20014;-83
2022/01/28 12:41:55;;;;;;;10.00;1.10;;;9.10;99.90;;;;;;5017377;28;20037;-83
2022/01/28 12:44:23;;;;;;;13.88;1.63;;;9.00;99.90;;;;;;5016821;28;20065;-84
2022/01/28 12:47:01;;;;;;;12.88;1.42;;;9.00;99.90;;;;;;5015970;28;20021;-84
2022/01/28 12:49:29;;;;;;;10.15;1.67;;;9.00;99.90;;;;;;5014879;28;20025;-84
2022/01/28 12:52:04;;;;;;;15.35;1.55;;;9.00;99.90;;;;;;5007199;28;20030;-84
2022/01/28 12:54:44;;;;;;;13.55;1.58;;;9.10;99.90;;;;;;5003912;28;20026;-84
2022/01/28 12:57:15;;;;;;;10.35;1.55;;;9.10;99.90;;;;;;5004629;28;20105;-83
2022/01/28 12:59:45;;;;;;;10.45;1.38;;;9.20;99.90;;;;;;5012854;28;20029;-84
2022/01/28 13:02:12;;;;;;;9.13;1.42;;;9.30;99.90;;;;;;5011836;28;20018;-84
2022/01/28 13:10:19;;;;;;;9.95;1.00;;;9.60;99.90;;;;;;5007870;28;20040;-84
2022/01/28 13:12:45;;;;;;;10.37;1.80;;;9.50;99.90;;;;;;5013075;28;20078;-84
2022/01/28 13:15:13;;;;;;;12.00;2.75;;;9.40;99.90;;;;;;5015344;28;20048;-83
2022/01/28 13:17:51;;;;;;;15.27;1.50;;;9.30;99.90;;;;;;5017348;28;20030;-84
2022/01/28 13:20:16;;;;;;;12.75;1.55;;;9.30;99.90;;;;;;5015683;28;20050;-84
2022/01/28 13:22:49;;;;;;;9.70;1.27;;;9.30;99.90;;;;;;5013744;28;20038;-83
2022/01/28 13:25:23;;;;;;;9.68;1.60;;;9.20;1.00;;;;;;5014392;28;20230;-84
2022/01/28 13:27:55;;;;;;;12.13;1.63;;;9.20;99.90;;;;;;5002848;28;20097;-82
2022/01/28 13:30:21;;;;;;;13.55;1.60;;;9.10;99.90;;;;;;5008299;28;20372;-82
2022/01/28 13:32:49;;;;;;;8.77;1.55;;;9.10;99.90;;;;;;5009619;28;20656;-82
2022/01/28 13:35:24;;;;;;;12.02;1.83;;;9.00;99.90;;;;;;4998338;28;20052;-82
2022/01/28 13:37:53;;;;;;;6.85;1.50;;;9.00;99.90;;;;;;4993842;28;20483;-82
2022/01/28 13:40:23;;;;;;;8.30;1.42;;;8.90;1.00;;;;;;5002327;28;20021;-82
2022/01/28 13:43:06;;;;;;;9.68;1.42;;;9.00;1.00;;;;;;5013761;28;20030;-82
2022/01/28 13:45:38;;;;;;;7.45;1.20;;;8.90;1.00;;;;;;4994609;28;20030;-82
2022/01/28 13:48:12;;;;;;;13.18;1.75;;;8.90;1.00;;;;;;5003061;28;20394;-83
2022/01/28 13:50:42;;;;;;;19.63;2.53;;;8.90;1.00;;;;;;5000400;28;20022;-82
2022/01/28 13:55:54;;;;;;;6.65;1.00;;;8.70;1.00;;;;;;5003203;28;20026;-81
2022/01/28 13:58:20;;;;;;;9.50;1.38;;;8.70;1.00;;;;;;5010450;28;20048;-81
2022/01/28 14:00:50;;;;;;;12.13;1.70;;;8.70;1.00;;;;;;5013304;28;20026;-82
2022/01/28 14:03:20;;;;;;;7.85;1.23;;;8.70;1.00;;;;;;5013616;28;20064;-82
2022/01/28 14:06:00;;;;;;;6.85;1.63;;;8.70;1.00;;;;;;5013983;28;20037;-81
2022/01/28 14:08:45;;;;;;;5.75;1.15;;;8.70;1.00;;;;;;5011200;28;20034;-82
2022/01/28 14:11:21;;;;;;;10.73;2.08;;;8.60;1.00;;;;;;5010075;28;20378;-82
2022/01/28 14:14:06;;;;;;;9.65;2.40;;;8.60;1.00;;;;;;5014287;28;20026;-82
2022/01/28 14:16:31;;;;;;;13.60;3.50;;;8.60;1.00;;;;;;5007700;28;20022;-81
2022/01/28 14:18:57;;;;;;;8.77;2.00;;;8.60;1.00;;;;;;5012876;28;20104;-81
2022/01/28 14:21:22;;;;;;;9.48;1.83;;;8.70;1.00;;;;;;5014330;28;20029;-82
2022/01/28 14:23:48;;;;;;;7.93;2.10;;;8.70;1.00;;;;;;5012918;28;20034;-82
2022/01/28 14:26:14;;;;;;;11.57;2.60;;;8.80;1.00;;;;;;5014034;28;20026;-82
2022/01/28 14:29:09;;;;;;;9.90;2.75;;;8.80;1.00;;;;;;5014895;28;20058;-83